Time;durP1;ratioP1;P1;durP2;ratioP2;P2;SDS_P1;SDS_P2;PMS_P1;PMS_P2;Temp;Humidity;BMP_temperature;BMP_pressure;BME280_temperature;BME280_humidity;BME280_pressure;Samples;Min_cycle;Max_cycle;Signal;HPM_P1;HPM_P2
2023/04/09 00:00:37;;;;;;;17.87;10.93;;;7.20;99.90;;;;;;5035941;28;20818;-81
2023/04/09 00:03:03;;;;;;;17.40;11.17;;;7.20;99.90;;;;;;5018798;28;20273;-81
2023/04/09 00:05:28;;;;;;;18.63;11.57;;;7.20;99.90;;;;;;5036520;28;20177;-81
2023/04/09 00:07:54;;;;;;;19.70;12.20;;;7.30;99.90;;;;;;5018726;28;20558;-81
2023/04/09 00:10:20;;;;;;;17.43;11.43;;;7.30;99.90;;;;;;5035554;28;20193;-81
2023/04/09 00:12:45;;;;;;;20.53;11.87;;;7.30;99.90;;;;;;5018200;28;20203;-81
2023/04/09 00:15:11;;;;;;;19.40;12.43;;;7.30;99.90;;;;;;5019019;28;20220;-81
2023/04/09 00:17:37;;;;;;;18.17;11.40;;;7.30;99.90;;;;;;5018943;28;20174;-83
2023/04/09 00:20:03;;;;;;;18.33;11.73;;;7.40;99.90;;;;;;5017852;28;20202;-81
2023/04/09 00:22:28;;;;;;;17.13;11.37;;;7.30;99.90;;;;;;5035984;28;20175;-80
2023/04/09 00:24:54;;;;;;;17.47;11.23;;;7.30;99.90;;;;;;5035796;28;20182;-81
2023/04/09 00:27:20;;;;;;;18.40;12.03;;;7.40;99.90;;;;;;5036179;28;20171;-82
2023/04/09 00:29:46;;;;;;;17.70;11.03;;;7.30;99.90;;;;;;5017628;28;20181;-81
2023/04/09 00:32:12;;;;;;;17.63;10.80;;;7.30;99.90;;;;;;5035695;28;20202;-81
2023/04/09 00:34:38;;;;;;;17.57;11.20;;;7.30;99.90;;;;;;5035558;28;20265;-81
2023/04/09 00:37:04;;;;;;;18.70;11.43;;;7.10;99.90;;;;;;5017431;28;20289;-82
2023/04/09 00:39:30;;;;;;;18.97;12.10;;;7.00;99.90;;;;;;5017493;28;20591;-80
2023/04/09 00:42:01;;;;;;;19.03;11.70;;;6.90;99.90;;;;;;5016745;28;20189;-80
2023/04/09 00:44:27;;;;;;;19.03;12.23;;;7.00;99.90;;;;;;5035212;28;20544;-81
2023/04/09 00:46:54;;;;;;;17.70;11.63;;;7.00;99.90;;;;;;5017556;28;20668;-81
2023/04/09 00:49:20;;;;;;;20.17;12.10;;;7.00;99.90;;;;;;5017462;28;20171;-81
2023/04/09 00:51:46;;;;;;;20.77;11.53;;;7.00;99.90;;;;;;5017047;28;20201;-81
2023/04/09 00:54:12;;;;;;;19.37;12.67;;;7.10;99.90;;;;;;5017190;28;20189;-79
2023/04/09 00:56:37;;;;;;;19.97;11.83;;;7.00;99.90;;;;;;5016671;28;20178;-81
2023/04/09 00:59:03;;;;;;;20.07;12.03;;;7.00;99.90;;;;;;5016870;28;20178;-81
2023/04/09 01:01:29;;;;;;;19.77;11.83;;;7.10;99.90;;;;;;5016894;28;20190;-81
2023/04/09 01:03:55;;;;;;;19.03;11.77;;;7.10;99.90;;;;;;5034597;28;20233;-81
2023/04/09 01:06:55;;;;;;;16.27;11.40;;;7.10;99.90;;;;;;5034815;28;20182;-81
2023/04/09 01:09:27;;;;;;;20.70;12.03;;;7.00;99.90;;;;;;5016866;28;20173;-81
2023/04/09 01:12:28;;;;;;;18.80;11.90;;;7.00;99.90;;;;;;5034046;28;20194;-81
2023/04/09 01:15:10;;;;;;;21.13;12.30;;;7.00;99.90;;;;;;5034449;28;20816;-81
2023/04/09 01:18:16;;;;;;;18.40;11.63;;;6.90;99.90;;;;;;5016851;28;20320;-81
2023/04/09 01:20:50;;;;;;;19.00;11.93;;;7.00;99.90;;;;;;4934191;29;20287;-81
2023/04/09 01:23:28;;;;;;;18.90;12.27;;;6.90;99.90;;;;;;5023204;28;20232;-81
2023/04/09 01:26:06;;;;;;;21.03;12.73;;;6.90;99.90;;;;;;5016641;28;20181;-81
2023/04/09 01:28:31;;;;;;;19.07;12.30;;;6.80;99.90;;;;;;5034393;28;20161;-82
2023/04/09 01:31:01;;;;;;;19.03;12.07;;;6.80;99.90;;;;;;5015777;28;20313;-81
2023/04/09 01:33:29;;;;;;;21.20;13.07;;;6.80;99.90;;;;;;5016296;28;20261;-80
2023/04/09 01:35:57;;;;;;;20.67;12.83;;;6.70;99.90;;;;;;5016749;28;20269;-81
2023/04/09 01:38:24;;;;;;;19.33;12.47;;;6.70;99.90;;;;;;5016477;28;20231;-81
2023/04/09 01:40:50;;;;;;;22.13;13.03;;;6.70;99.90;;;;;;5015697;28;20233;-81
2023/04/09 01:43:17;;;;;;;22.07;13.27;;;6.70;99.90;;;;;;5016128;28;20181;-82
2023/04/09 01:45:44;;;;;;;20.73;12.03;;;6.70;99.90;;;;;;5016310;28;20200;-81
2023/04/09 01:48:12;;;;;;;19.97;12.40;;;6.80;99.90;;;;;;5016539;28;20235;-81
2023/04/09 01:50:38;;;;;;;22.83;12.70;;;6.70;99.90;;;;;;5015781;28;20230;-81
2023/04/09 01:53:04;;;;;;;20.67;12.57;;;6.80;99.90;;;;;;5016148;28;20218;-80
2023/04/09 01:55:30;;;;;;;21.77;12.80;;;6.80;99.90;;;;;;5016293;28;20177;-81
2023/04/09 01:57:55;;;;;;;21.47;13.57;;;6.80;99.90;;;;;;5015905;28;20178;-81
2023/04/09 02:00:22;;;;;;;20.73;13.27;;;6.80;99.90;;;;;;5033391;28;20266;-81
2023/04/09 02:03:00;;;;;;;20.57;13.20;;;6.80;99.90;;;;;;5033509;28;20164;-82
2023/04/09 02:05:30;;;;;;;20.60;12.67;;;6.80;99.90;;;;;;5033378;28;20243;-81
2023/04/09 02:07:58;;;;;;;20.73;12.87;;;6.90;99.90;;;;;;5033259;28;20174;-81
2023/04/09 02:10:27;;;;;;;21.90;13.30;;;6.90;99.90;;;;;;5033296;28;20193;-81
2023/04/09 02:12:54;;;;;;;22.47;13.33;;;6.90;99.90;;;;;;5016444;28;20178;-80
2023/04/09 02:15:20;;;;;;;22.27;12.57;;;6.90;99.90;;;;;;5016116;28;20707;-81
2023/04/09 02:17:46;;;;;;;23.43;13.10;;;6.90;99.90;;;;;;5034004;28;20241;-81
2023/04/09 02:20:18;;;;;;;22.17;13.30;;;6.90;99.90;;;;;;5033401;28;20274;-81
2023/04/09 02:22:45;;;;;;;18.87;12.67;;;6.90;99.90;;;;;;5015873;28;20169;-81
2023/04/09 02:25:10;;;;;;;21.47;13.83;;;6.90;99.90;;;;;;5016047;28;20264;-81
2023/04/09 02:27:36;;;;;;;21.87;13.53;;;7.00;99.90;;;;;;5033465;28;20613;-81
2023/04/09 02:30:02;;;;;;;19.30;12.47;;;6.90;99.90;;;;;;5015368;28;20174;-82
2023/04/09 02:32:28;;;;;;;20.43;12.40;;;7.00;99.90;;;;;;5015837;28;20199;-82
2023/04/09 02:34:54;;;;;;;22.07;13.47;;;6.90;99.90;;;;;;5015897;28;20182;-81
2023/04/09 02:37:19;;;;;;;20.93;13.60;;;6.90;99.90;;;;;;5033711;28;20201;-81
2023/04/09 02:39:45;;;;;;;21.27;13.23;;;6.90;99.90;;;;;;5015146;28;20204;-80
2023/04/09 02:42:10;;;;;;;18.40;12.33;;;6.80;99.90;;;;;;5015560;28;20222;-81
2023/04/09 02:44:36;;;;;;;21.77;13.40;;;6.80;99.90;;;;;;5015963;28;20177;-81
2023/04/09 02:47:02;;;;;;;23.07;13.97;;;6.80;99.90;;;;;;5033718;28;20170;-81
2023/04/09 02:49:27;;;;;;;21.60;13.50;;;6.80;99.90;;;;;;5015433;28;20197;-81
2023/04/09 02:51:53;;;;;;;22.07;13.70;;;6.80;99.90;;;;;;5032713;28;20201;-82
2023/04/09 02:54:18;;;;;;;21.27;13.37;;;6.90;99.90;;;;;;5033510;28;20182;-81
2023/04/09 02:56:44;;;;;;;22.33;13.43;;;6.90;99.90;;;;;;5015574;28;20186;-81
2023/04/09 02:59:09;;;;;;;22.97;13.80;;;6.80;99.90;;;;;;5015853;28;20666;-81
2023/04/09 03:01:35;;;;;;;22.70;13.63;;;6.80;99.90;;;;;;5014211;28;20248;-82
2023/04/09 03:04:01;;;;;;;20.73;11.93;;;6.80;99.90;;;;;;5033653;28;20527;-79
2023/04/09 03:06:27;;;;;;;19.93;12.43;;;6.80;99.90;;;;;;5015445;28;20184;-81
2023/04/09 03:08:52;;;;;;;20.17;12.43;;;6.80;99.90;;;;;;5023417;28;20178;-81
2023/04/09 03:11:18;;;;;;;19.80;12.87;;;6.80;99.90;;;;;;5013190;28;20190;-80
2023/04/09 03:13:44;;;;;;;21.10;13.70;;;6.70;99.90;;;;;;5015729;28;20281;-84
2023/04/09 03:16:09;;;;;;;21.50;13.20;;;6.70;99.90;;;;;;5033620;28;20175;-81
2023/04/09 03:18:35;;;;;;;21.87;12.30;;;6.70;99.90;;;;;;5033979;28;20565;-81
2023/04/09 03:21:08;;;;;;;20.00;12.03;;;6.60;99.90;;;;;;5036266;28;20206;-81
2023/04/09 03:23:34;;;;;;;21.50;13.40;;;6.60;99.90;;;;;;5037211;28;20169;-82
2023/04/09 03:26:04;;;;;;;19.10;11.97;;;6.60;99.90;;;;;;5019629;28;20223;-81
2023/04/09 03:28:30;;;;;;;19.80;12.37;;;6.60;99.90;;;;;;5019682;28;20171;-82
2023/04/09 03:30:55;;;;;;;18.83;12.80;;;6.50;99.90;;;;;;5036334;28;20585;-83
2023/04/09 03:33:21;;;;;;;19.23;12.67;;;6.50;99.90;;;;;;5017862;28;20185;-81
2023/04/09 03:35:47;;;;;;;18.73;12.43;;;6.50;99.90;;;;;;5018611;28;20193;-82
2023/04/09 03:38:12;;;;;;;20.03;12.10;;;6.60;99.90;;;;;;5036568;28;20189;-81
2023/04/09 03:40:38;;;;;;;19.63;12.13;;;6.60;99.90;;;;;;5005442;28;20217;-80
2023/04/09 03:43:03;;;;;;;20.53;12.37;;;6.60;99.90;;;;;;4998565;28;20191;-81
2023/04/09 03:45:29;;;;;;;21.70;12.80;;;6.50;99.90;;;;;;4998760;28;20177;-81
2023/04/09 03:47:54;;;;;;;21.33;12.97;;;6.50;99.90;;;;;;5016043;28;20185;-81
2023/04/09 03:50:20;;;;;;;21.33;13.33;;;6.40;99.90;;;;;;5027705;28;20214;-81
2023/04/09 03:52:46;;;;;;;18.87;11.57;;;6.50;99.90;;;;;;5035660;28;20208;-81
2023/04/09 03:55:11;;;;;;;18.67;12.20;;;6.50;99.90;;;;;;5035655;28;20257;-82
2023/04/09 03:57:37;;;;;;;17.77;11.97;;;6.50;99.90;;;;;;5035290;28;20220;-81
2023/04/09 04:00:03;;;;;;;21.40;12.70;;;6.40;99.90;;;;;;5034308;28;20206;-80
2023/04/09 04:02:32;;;;;;;18.63;11.77;;;6.40;99.90;;;;;;5017759;28;20181;-81
2023/04/09 04:05:00;;;;;;;19.57;11.77;;;6.40;99.90;;;;;;5035910;28;20177;-81
2023/04/09 04:07:26;;;;;;;18.07;11.73;;;6.40;99.90;;;;;;5018076;28;20174;-81
2023/04/09 04:09:52;;;;;;;19.70;12.27;;;6.30;99.90;;;;;;5035073;28;20232;-81
2023/04/09 04:12:17;;;;;;;20.43;12.10;;;6.30;99.90;;;;;;5018338;28;20251;-80
2023/04/09 04:14:43;;;;;;;19.53;12.23;;;6.30;99.90;;;;;;5018337;28;20181;-81
2023/04/09 04:17:09;;;;;;;17.97;11.03;;;6.40;99.90;;;;;;5018334;28;20187;-81
2023/04/09 04:19:35;;;;;;;16.43;10.63;;;6.40;99.90;;;;;;5035370;28;20275;-82
2023/04/09 04:22:00;;;;;;;17.50;10.47;;;6.40;99.90;;;;;;5017828;28;20598;-82
2023/04/09 04:24:26;;;;;;;18.13;11.50;;;6.30;99.90;;;;;;5035348;28;20213;-81
2023/04/09 04:26:51;;;;;;;17.73;11.87;;;6.30;99.90;;;;;;5017542;28;20208;-82
2023/04/09 04:29:17;;;;;;;18.03;11.10;;;6.30;99.90;;;;;;5035580;28;20182;-82
2023/04/09 04:31:43;;;;;;;18.13;12.20;;;6.30;99.90;;;;;;5035450;28;20217;-81
2023/04/09 04:34:08;;;;;;;20.33;12.30;;;6.40;99.90;;;;;;5035468;28;20181;-81
2023/04/09 04:36:35;;;;;;;18.23;11.73;;;6.40;99.90;;;;;;5035568;28;20189;-81
2023/04/09 04:39:01;;;;;;;17.77;11.53;;;6.40;99.90;;;;;;5017589;28;20584;-82
2023/04/09 04:41:27;;;;;;;16.97;11.40;;;6.30;99.90;;;;;;5017161;28;20228;-81
2023/04/09 04:43:52;;;;;;;20.20;11.23;;;6.30;99.90;;;;;;5018000;28;20178;-81
2023/04/09 04:46:19;;;;;;;16.77;10.87;;;6.30;99.90;;;;;;5017805;28;20173;-80
2023/04/09 04:48:44;;;;;;;16.80;11.40;;;6.30;99.90;;;;;;5017713;28;20400;-82
2023/04/09 04:51:10;;;;;;;19.43;11.63;;;6.30;99.90;;;;;;5018096;28;20233;-82
2023/04/09 04:53:35;;;;;;;16.57;11.60;;;6.30;99.90;;;;;;5019400;28;20185;-82
2023/04/09 04:56:01;;;;;;;19.30;11.37;;;6.30;99.90;;;;;;5019243;28;20236;-81
2023/04/09 04:58:27;;;;;;;19.53;11.47;;;6.40;99.90;;;;;;5038110;28;20647;-80
2023/04/09 05:00:52;;;;;;;15.13;9.17;;;6.40;99.90;;;;;;5039001;28;20240;-79
2023/04/09 05:03:18;;;;;;;13.97;8.57;;;6.40;99.90;;;;;;5019612;28;20173;-78
2023/04/09 05:05:44;;;;;;;13.90;9.43;;;7.00;99.90;;;;;;5019632;28;20256;-79
2023/04/09 05:08:10;;;;;;;14.93;9.43;;;7.70;99.90;;;;;;5037645;28;20178;-79
2023/04/09 05:10:36;;;;;;;14.40;10.03;;;8.10;99.90;;;;;;5019131;28;20204;-81
2023/04/09 05:13:01;;;;;;;15.97;10.73;;;8.60;99.90;;;;;;5039592;28;20178;-80
2023/04/09 05:15:27;;;;;;;17.97;11.43;;;8.30;99.90;;;;;;5036797;28;20198;-79
2023/04/09 05:17:53;;;;;;;17.07;11.03;;;8.00;99.90;;;;;;5018680;28;20270;-79
2023/04/09 05:20:18;;;;;;;16.43;10.97;;;7.50;99.90;;;;;;5034807;28;20256;-78
2023/04/09 05:22:44;;;;;;;18.20;11.97;;;7.20;99.90;;;;;;5017218;28;20197;-78
2023/04/09 05:25:10;;;;;;;19.17;12.87;;;6.90;99.90;;;;;;5019201;28;20236;-79
2023/04/09 05:27:35;;;;;;;15.40;10.40;;;6.70;99.90;;;;;;5018657;28;20227;-82
2023/04/09 05:30:01;;;;;;;16.87;10.87;;;6.60;99.90;;;;;;5018492;28;20592;-80
2023/04/09 05:32:27;;;;;;;16.03;9.93;;;6.60;99.90;;;;;;5034333;28;20248;-80
2023/04/09 05:34:52;;;;;;;17.77;10.83;;;6.60;99.90;;;;;;5035532;28;20191;-79
2023/04/09 05:37:18;;;;;;;16.47;10.63;;;6.60;99.90;;;;;;5035719;28;20199;-78
2023/04/09 05:39:43;;;;;;;17.03;11.47;;;6.70;99.90;;;;;;5016545;28;20202;-79
2023/04/09 05:42:09;;;;;;;17.67;11.23;;;6.70;99.90;;;;;;5016845;28;20189;-78
2023/04/09 05:44:34;;;;;;;17.40;12.00;;;6.60;99.90;;;;;;5018335;28;20610;-82
2023/04/09 05:47:00;;;;;;;20.27;13.07;;;6.70;99.90;;;;;;5034573;28;20591;-81
2023/04/09 05:49:26;;;;;;;24.40;14.77;;;6.60;99.90;;;;;;5033916;28;20200;-80
2023/04/09 05:51:51;;;;;;;23.50;13.47;;;6.70;99.90;;;;;;5017099;28;20190;-79
2023/04/09 05:54:17;;;;;;;19.33;12.33;;;6.70;99.90;;;;;;5017543;28;20200;-81
2023/04/09 05:56:43;;;;;;;18.57;12.57;;;6.70;99.90;;;;;;5034773;28;20204;-80
2023/04/09 05:59:08;;;;;;;31.17;21.50;;;6.70;99.90;;;;;;5019145;28;20196;-81
2023/04/09 06:01:34;;;;;;;33.00;21.97;;;6.60;99.90;;;;;;5019320;28;20328;-82
2023/04/09 06:03:59;;;;;;;24.77;15.70;;;6.70;99.90;;;;;;5020336;28;20171;-80
2023/04/09 06:06:25;;;;;;;24.97;16.57;;;6.70;99.90;;;;;;5018191;28;20185;-82
2023/04/09 06:08:51;;;;;;;23.93;14.90;;;6.80;99.90;;;;;;5017162;28;20170;-79
2023/04/09 06:11:17;;;;;;;22.43;14.43;;;6.90;99.90;;;;;;5035219;28;20243;-79
2023/04/09 06:13:42;;;;;;;23.90;15.17;;;7.00;99.90;;;;;;5016732;28;20177;-79
2023/04/09 06:16:09;;;;;;;22.57;14.37;;;7.00;99.90;;;;;;5016340;28;20587;-79
2023/04/09 06:18:35;;;;;;;25.37;16.47;;;7.00;99.90;;;;;;5015444;28;20177;-79
2023/04/09 06:21:06;;;;;;;26.43;16.93;;;7.00;99.90;;;;;;5032687;28;20200;-78
2023/04/09 06:23:33;;;;;;;28.17;16.80;;;7.00;99.90;;;;;;5015956;28;20220;-79
2023/04/09 06:25:59;;;;;;;23.90;15.47;;;7.00;99.90;;;;;;5033700;28;20271;-79
2023/04/09 06:28:25;;;;;;;24.97;16.83;;;7.00;99.90;;;;;;5016943;28;20200;-78
2023/04/09 06:30:52;;;;;;;27.37;16.27;;;7.00;99.90;;;;;;5014769;28;20316;-77
2023/04/09 06:33:18;;;;;;;25.57;15.87;;;7.00;99.90;;;;;;5033470;28;20275;-77
2023/04/09 06:35:43;;;;;;;28.33;17.07;;;7.10;99.90;;;;;;5016293;28;20668;-78
2023/04/09 06:38:09;;;;;;;26.70;16.10;;;7.10;99.90;;;;;;5015832;28;20637;-78
2023/04/09 06:40:37;;;;;;;26.83;17.10;;;7.10;99.90;;;;;;5013536;28;20206;-78
2023/04/09 06:43:03;;;;;;;27.07;16.87;;;7.10;99.90;;;;;;5015363;28;20647;-78
2023/04/09 06:45:30;;;;;;;28.80;16.57;;;7.10;99.90;;;;;;5033488;28;20247;-79
2023/04/09 06:47:55;;;;;;;25.93;16.73;;;7.10;99.90;;;;;;5033730;28;20183;-79
2023/04/09 06:50:21;;;;;;;24.17;16.47;;;7.20;99.90;;;;;;5032814;28;20193;-79
2023/04/09 06:52:46;;;;;;;27.80;16.70;;;7.20;99.90;;;;;;5016263;28;20638;-78
2023/04/09 06:55:12;;;;;;;26.27;16.27;;;7.20;99.90;;;;;;5021060;28;20237;-78
2023/04/09 06:57:38;;;;;;;28.03;16.63;;;7.30;99.90;;;;;;5022574;28;20185;-78
2023/04/09 07:00:04;;;;;;;30.67;17.63;;;7.30;99.90;;;;;;5039849;28;20198;-77
2023/04/09 07:02:30;;;;;;;26.73;16.33;;;7.40;99.90;;;;;;5041459;28;20189;-78
2023/04/09 07:04:56;;;;;;;27.87;17.13;;;7.50;99.90;;;;;;5022678;28;20177;-81
2023/04/09 07:07:21;;;;;;;40.13;24.97;;;7.60;99.90;;;;;;5040192;28;20174;-79
2023/04/09 07:09:47;;;;;;;28.77;17.03;;;7.60;99.90;;;;;;5022644;28;20183;-81
2023/04/09 07:12:13;;;;;;;27.17;16.87;;;7.70;99.90;;;;;;5040354;28;20354;-77
2023/04/09 07:14:39;;;;;;;30.90;18.80;;;7.70;99.90;;;;;;5040359;28;20252;-78
2023/04/09 07:17:04;;;;;;;27.00;16.47;;;7.80;99.90;;;;;;5021156;28;20549;-77
2023/04/09 07:19:30;;;;;;;25.70;16.00;;;7.90;99.90;;;;;;5017776;28;20248;-79
2023/04/09 07:21:55;;;;;;;28.07;17.33;;;7.90;99.90;;;;;;5038770;28;20209;-79
2023/04/09 07:24:21;;;;;;;28.83;17.47;;;7.90;99.90;;;;;;5025489;28;20170;-77
2023/04/09 07:26:47;;;;;;;26.77;17.10;;;8.00;99.90;;;;;;5022650;28;20530;-79
2023/04/09 07:29:12;;;;;;;29.63;17.40;;;8.10;99.90;;;;;;5020925;28;20179;-82
2023/04/09 07:31:38;;;;;;;30.10;17.43;;;8.10;99.90;;;;;;5030053;28;20223;-77
2023/04/09 07:34:03;;;;;;;28.73;17.37;;;8.10;99.90;;;;;;5015618;28;20172;-78
2023/04/09 07:36:30;;;;;;;26.90;16.73;;;8.20;99.90;;;;;;5021535;28;20178;-79
2023/04/09 07:38:56;;;;;;;28.83;19.40;;;8.20;99.90;;;;;;5020499;28;20186;-80
2023/04/09 07:41:21;;;;;;;26.47;16.60;;;8.30;99.90;;;;;;5023960;28;20259;-80
2023/04/09 07:43:47;;;;;;;26.53;18.13;;;8.40;99.90;;;;;;5040270;28;20182;-82
2023/04/09 07:46:19;;;;;;;26.43;16.37;;;8.50;99.90;;;;;;5022146;28;20178;-81
2023/04/09 07:48:44;;;;;;;29.23;18.30;;;8.60;99.90;;;;;;5038790;28;20229;-80
2023/04/09 07:51:10;;;;;;;24.63;16.13;;;8.70;99.90;;;;;;5021372;28;20280;-80
2023/04/09 07:53:35;;;;;;;32.47;19.93;;;8.70;99.90;;;;;;5021337;28;20181;-80
2023/04/09 07:56:01;;;;;;;42.30;28.67;;;8.80;99.90;;;;;;5022070;28;20190;-79
2023/04/09 07:58:27;;;;;;;26.60;17.53;;;8.80;99.90;;;;;;5032239;28;20533;-80
2023/04/09 08:00:52;;;;;;;26.87;16.77;;;8.90;99.90;;;;;;5039001;28;20200;-80
2023/04/09 08:03:18;;;;;;;22.73;15.87;;;9.10;99.90;;;;;;5036194;28;20195;-81
2023/04/09 08:05:44;;;;;;;116.97;73.27;;;9.20;99.90;;;;;;5014649;28;20247;-81
2023/04/09 08:08:10;;;;;;;630.33;433.03;;;9.50;99.90;;;;;;5022058;28;20177;-78
2023/04/09 08:10:35;;;;;;;25.20;15.43;;;10.60;99.90;;;;;;5040270;28;20356;-78
2023/04/09 08:13:01;;;;;;;25.40;16.57;;;10.40;99.90;;;;;;5016409;28;20190;-79
2023/04/09 08:15:26;;;;;;;24.20;15.70;;;10.00;99.90;;;;;;5012796;28;20183;-82
2023/04/09 08:17:52;;;;;;;22.93;15.33;;;9.60;99.90;;;;;;5036121;28;20232;-81
2023/04/09 08:20:18;;;;;;;24.17;15.40;;;9.40;99.90;;;;;;5024167;28;20230;-81
2023/04/09 08:22:44;;;;;;;24.87;15.90;;;9.30;99.90;;;;;;5026116;28;20180;-78
2023/04/09 08:25:09;;;;;;;25.43;16.10;;;9.30;99.90;;;;;;5019834;28;20178;-80
2023/04/09 08:27:35;;;;;;;22.33;15.03;;;9.30;99.90;;;;;;5024599;28;20232;-80
2023/04/09 08:30:02;;;;;;;24.53;16.03;;;9.20;99.90;;;;;;5017002;28;20253;-78
2023/04/09 08:32:28;;;;;;;23.10;15.10;;;9.20;99.90;;;;;;5016525;28;20615;-79
2023/04/09 08:34:53;;;;;;;23.67;14.90;;;9.10;99.90;;;;;;5026943;28;20178;-81
2023/04/09 08:37:19;;;;;;;23.07;15.33;;;9.10;99.90;;;;;;5030122;28;20580;-80
2023/04/09 08:39:44;;;;;;;24.20;14.80;;;9.10;99.90;;;;;;5005506;28;20237;-79
2023/04/09 08:42:11;;;;;;;24.83;15.40;;;9.20;99.90;;;;;;5025933;28;20197;-80
2023/04/09 08:44:37;;;;;;;24.77;14.87;;;9.30;99.90;;;;;;5023622;28;20177;-79
2023/04/09 08:47:10;;;;;;;25.80;15.87;;;9.30;99.90;;;;;;5022854;28;20277;-79
2023/04/09 08:49:37;;;;;;;21.10;14.23;;;9.30;99.90;;;;;;5019696;28;20210;-82
2023/04/09 08:52:03;;;;;;;22.23;14.93;;;9.30;99.90;;;;;;5036213;28;20212;-77
2023/04/09 08:54:29;;;;;;;21.73;14.40;;;9.40;99.90;;;;;;5033368;28;20188;-77
2023/04/09 08:56:56;;;;;;;25.53;15.47;;;9.40;99.90;;;;;;5030403;28;20186;-76
2023/04/09 08:59:22;;;;;;;23.10;15.67;;;9.40;99.90;;;;;;5017315;28;20185;-78
2023/04/09 09:01:52;;;;;;;22.07;14.57;;;9.40;99.90;;;;;;5035647;28;20190;-77
2023/04/09 09:04:18;;;;;;;22.27;15.03;;;9.40;99.90;;;;;;5021216;28;20185;-75
2023/04/09 09:06:44;;;;;;;23.47;15.03;;;9.40;99.90;;;;;;5034979;28;20177;-77
2023/04/09 09:09:12;;;;;;;22.17;14.50;;;9.50;99.90;;;;;;5017532;28;20177;-78
2023/04/09 09:11:39;;;;;;;23.37;13.83;;;9.60;99.90;;;;;;5016391;28;20190;-78
2023/04/09 09:14:10;;;;;;;24.50;15.07;;;9.80;99.90;;;;;;5016765;28;20177;-78
2023/04/09 09:16:41;;;;;;;24.83;15.30;;;9.90;99.90;;;;;;4996699;28;20170;-78
2023/04/09 09:19:22;;;;;;;23.90;15.43;;;9.80;99.90;;;;;;5013054;28;20174;-78
2023/04/09 09:22:14;;;;;;;23.67;15.17;;;9.80;99.90;;;;;;5014924;28;20259;-78
2023/04/09 09:24:50;;;;;;;27.57;16.00;;;9.80;99.90;;;;;;5015497;28;20322;-78
2023/04/09 09:27:32;;;;;;;20.63;13.70;;;9.80;99.90;;;;;;5007816;28;20185;-78
2023/04/09 09:29:58;;;;;;;21.53;13.83;;;9.80;99.90;;;;;;5030029;28;20181;-79
2023/04/09 09:32:24;;;;;;;20.53;13.87;;;10.00;99.90;;;;;;5024825;28;20595;-78
2023/04/09 09:35:04;;;;;;;20.50;13.23;;;10.10;99.90;;;;;;5037392;28;20667;-78
2023/04/09 09:37:30;;;;;;;20.17;13.63;;;10.20;99.90;;;;;;5019732;28;20181;-78
2023/04/09 09:39:57;;;;;;;19.83;13.13;;;10.30;99.90;;;;;;5036898;28;20202;-78
2023/04/09 09:42:23;;;;;;;19.17;12.50;;;10.20;99.90;;;;;;5020927;28;20205;-77
2023/04/09 09:44:50;;;;;;;17.93;12.70;;;10.30;99.90;;;;;;5024117;28;20175;-77
2023/04/09 09:47:18;;;;;;;18.57;12.37;;;10.40;99.90;;;;;;5011988;28;20170;-78
2023/04/09 09:49:46;;;;;;;16.97;11.57;;;10.80;99.90;;;;;;5020452;28;20200;-78
2023/04/09 09:52:12;;;;;;;17.13;11.60;;;11.00;99.90;;;;;;5020799;28;20202;-77
2023/04/09 09:54:42;;;;;;;16.50;11.20;;;11.00;99.90;;;;;;5013040;28;20190;-78
2023/04/09 09:57:12;;;;;;;16.07;10.97;;;10.70;99.90;;;;;;5025963;28;20177;-78
2023/04/09 09:59:42;;;;;;;18.50;11.47;;;10.70;99.90;;;;;;5036092;28;20186;-77
2023/04/09 10:02:38;;;;;;;17.83;12.00;;;10.70;99.90;;;;;;5037822;28;20190;-78
2023/04/09 10:05:06;;;;;;;15.93;11.13;;;10.90;99.90;;;;;;5018120;28;20200;-77
2023/04/09 10:07:32;;;;;;;17.77;12.10;;;11.00;99.90;;;;;;5037415;28;20174;-78
2023/04/09 10:10:00;;;;;;;16.40;11.33;;;11.00;99.90;;;;;;5035850;28;20174;-78
2023/04/09 10:12:26;;;;;;;17.20;11.53;;;11.30;99.90;;;;;;5033719;28;20209;-79
2023/04/09 10:14:53;;;;;;;16.13;11.57;;;11.50;99.90;;;;;;5033785;28;20182;-80
2023/04/09 10:17:20;;;;;;;16.40;10.87;;;11.50;99.90;;;;;;5021556;28;20611;-78
2023/04/09 10:19:56;;;;;;;18.37;11.30;;;11.50;99.90;;;;;;5030696;28;20438;-78
2023/04/09 10:22:25;;;;;;;15.07;11.13;;;11.40;99.90;;;;;;5032149;28;20198;-79
2023/04/09 10:24:51;;;;;;;14.27;10.43;;;11.50;99.90;;;;;;5034536;28;20178;-79
2023/04/09 10:27:17;;;;;;;15.53;10.50;;;11.70;99.90;;;;;;5033742;28;20174;-83
2023/04/09 10:29:47;;;;;;;16.23;11.00;;;12.00;99.90;;;;;;5017006;28;20170;-78
2023/04/09 10:32:26;;;;;;;14.07;10.30;;;12.10;99.90;;;;;;5028524;28;20210;-79
2023/04/09 10:34:56;;;;;;;15.30;11.00;;;12.00;99.90;;;;;;5034454;28;20227;-81
2023/04/09 10:37:24;;;;;;;13.73;10.07;;;11.80;99.90;;;;;;5017172;28;20263;-78
2023/04/09 10:39:51;;;;;;;14.17;9.80;;;11.90;98.40;;;;;;5013162;28;20266;-79
2023/04/09 10:42:31;;;;;;;13.00;9.70;;;11.50;96.30;;;;;;5037748;28;20203;-79
2023/04/09 10:45:08;;;;;;;10.13;7.90;;;11.60;96.20;;;;;;5017679;28;20175;-79
2023/04/09 10:47:35;;;;;;;10.73;7.57;;;11.60;80.80;;;;;;5036397;28;20174;-80
2023/04/09 10:50:20;;;;;;;9.67;6.90;;;11.70;84.40;;;;;;5030816;28;20202;-79
2023/04/09 10:52:50;;;;;;;8.87;6.10;;;11.90;77.60;;;;;;5015307;28;20182;-79
2023/04/09 10:55:36;;;;;;;8.37;6.60;;;11.90;65.20;;;;;;5031797;28;20629;-80
2023/04/09 10:58:09;;;;;;;9.10;6.90;;;11.90;68.00;;;;;;5036570;28;20174;-79
2023/04/09 11:00:40;;;;;;;8.40;6.73;;;11.90;75.20;;;;;;5035567;28;20210;-81
2023/04/09 11:03:16;;;;;;;9.50;6.60;;;11.90;77.20;;;;;;5015196;28;20181;-79
2023/04/09 11:05:43;;;;;;;8.73;6.77;;;12.00;70.80;;;;;;5014384;28;20173;-80
2023/04/09 11:08:11;;;;;;;8.47;6.30;;;12.00;70.60;;;;;;5033406;28;20166;-81
2023/04/09 11:10:40;;;;;;;7.93;6.53;;;12.00;66.90;;;;;;5006602;28;20194;-80
2023/04/09 11:13:06;;;;;;;8.37;6.40;;;12.40;72.70;;;;;;5032105;28;20633;-81
2023/04/09 11:15:34;;;;;;;8.40;6.40;;;13.10;59.40;;;;;;5032990;28;20669;-80
2023/04/09 11:18:01;;;;;;;8.67;7.17;;;13.50;49.20;;;;;;5005889;28;20187;-81
2023/04/09 11:20:26;;;;;;;8.67;6.53;;;13.30;49.50;;;;;;5025208;28;20217;-80
2023/04/09 11:22:54;;;;;;;8.30;6.20;;;13.20;48.70;;;;;;5018730;28;20182;-79
2023/04/09 11:25:26;;;;;;;8.27;6.50;;;13.40;49.60;;;;;;5013178;28;20174;-81
2023/04/09 11:27:52;;;;;;;7.73;6.07;;;13.10;46.10;;;;;;5032644;28;20175;-80
2023/04/09 11:30:18;;;;;;;8.17;6.20;;;12.90;55.60;;;;;;5014203;28;20177;-81
2023/04/09 11:32:44;;;;;;;7.90;6.47;;;12.80;56.20;;;;;;5032606;28;20505;-81
2023/04/09 11:35:12;;;;;;;8.57;6.80;;;13.10;49.50;;;;;;5012736;28;20190;-81
2023/04/09 11:37:38;;;;;;;8.43;6.40;;;13.50;56.10;;;;;;5032039;28;20170;-78
2023/04/09 11:40:04;;;;;;;8.33;6.50;;;13.60;46.90;;;;;;5013587;28;20190;-80
2023/04/09 11:42:39;;;;;;;7.27;6.27;;;13.80;41.50;;;;;;5018268;28;20231;-80
2023/04/09 11:45:06;;;;;;;8.23;6.43;;;14.00;38.10;;;;;;5017721;28;20193;-80
2023/04/09 11:47:32;;;;;;;7.43;5.90;;;14.60;48.30;;;;;;5043267;28;20162;-79
2023/04/09 11:49:58;;;;;;;7.37;6.37;;;14.80;41.10;;;;;;5036218;28;20224;-79
2023/04/09 11:52:24;;;;;;;8.30;6.30;;;15.00;38.10;;;;;;5018237;28;20175;-80
2023/04/09 11:54:50;;;;;;;7.30;6.27;;;14.70;31.10;;;;;;5013761;28;20257;-81
2023/04/09 11:57:16;;;;;;;6.87;6.10;;;14.70;33.30;;;;;;5038503;28;20178;-80
2023/04/09 11:59:42;;;;;;;8.23;6.33;;;14.90;32.40;;;;;;5008360;28;20203;-80
2023/04/09 12:02:07;;;;;;;8.57;6.70;;;15.00;27.10;;;;;;5031294;28;20225;-80
2023/04/09 12:04:33;;;;;;;8.57;6.73;;;15.30;31.10;;;;;;5008321;28;20174;-78
2023/04/09 12:06:59;;;;;;;7.63;6.67;;;15.60;58.70;;;;;;5012215;28;20179;-78
2023/04/09 12:09:25;;;;;;;12.47;6.40;;;16.10;31.50;;;;;;5034743;28;20175;-77
2023/04/09 12:11:51;;;;;;;8.67;6.57;;;16.30;34.70;;;;;;5035138;28;20194;-77
2023/04/09 12:14:20;;;;;;;10.00;6.40;;;16.70;43.70;;;;;;5013996;28;20220;-79
2023/04/09 12:16:50;;;;;;;7.83;6.00;;;16.90;30.80;;;;;;5018838;28;20297;-77
2023/04/09 12:19:16;;;;;;;7.83;6.50;;;17.10;22.80;;;;;;5019332;28;20177;-77
2023/04/09 12:21:57;;;;;;;7.73;6.17;;;17.50;44.40;;;;;;5036268;28;20194;-79
2023/04/09 12:24:24;;;;;;;8.23;6.50;;;17.90;26.70;;;;;;5016174;28;20174;-81
2023/04/09 12:26:51;;;;;;;7.23;6.10;;;18.10;27.80;;;;;;5017952;28;20202;-83
2023/04/09 12:29:18;;;;;;;9.87;7.70;;;17.80;12.20;;;;;;5013820;28;20182;-85
2023/04/09 12:31:45;;;;;;;8.23;6.70;;;17.70;19.40;;;;;;5032615;28;20210;-84
2023/04/09 12:34:11;;;;;;;6.53;5.80;;;17.70;15.60;;;;;;5033665;28;20344;-84
2023/04/09 12:36:38;;;;;;;8.50;6.20;;;16.70;8.30;;;;;;5016254;28;20174;-82
2023/04/09 12:39:04;;;;;;;7.40;6.10;;;16.30;16.50;;;;;;5037362;28;20181;-79